Flight Briefing for CPX202

Departure Arrival
Washington Dulles International Airport (KIAD)
Click to view FAA NOTAMS
Miami International Airport (KMIA)
Click to view FAA NOTAMS
Departure Time Arrival Time
N/A N/A
Aircraft Distance
B767-300BDSF 894nm
Departure METAR Arrival METAR
KIAD 181452Z 00000KT 10SM SCT045 BKN065 BKN160 06/M04 A3029 RMK AO2 SLP257 T00561044 51017 KMIA 181453Z 36005KT 10SM FEW010 SCT130 BKN240 23/19 A3006 RMK AO2 SLP178 T02330194 53013
Suggested Route
JDUBB2 GSO J75 CAE J51 SAV J103 OMN HILEY7


View recent IFR Routes data
Notes



Charts and Procedures

Charts for KIAD
No chart available
Charts for KMIA
No chart available

Windy.com Weather Map